createdAt,value
2018-11-20T00:00:42.595Z,94358.00
2018-11-20T00:03:51.081Z,94372.00
2018-11-20T00:06:52.540Z,94373.00
2018-11-20T00:09:53.530Z,94369.00
2018-11-20T00:13:01.967Z,94353.00
2018-11-20T00:15:51.299Z,94357.00
2018-11-20T00:18:59.669Z,94366.00
2018-11-20T00:22:00.613Z,94368.00
2018-11-20T00:25:08.531Z,94390.00
2018-11-20T00:28:17.520Z,94384.00
2018-11-20T00:31:18.849Z,94365.00
2018-11-20T00:34:27.202Z,94367.00
2018-11-20T00:37:35.576Z,94354.00
2018-11-20T00:40:43.951Z,94340.00
2018-11-20T00:43:52.292Z,94342.00
2018-11-20T00:46:52.864Z,94337.00
2018-11-20T00:50:01.201Z,94315.00
2018-11-20T00:53:10.398Z,94333.00
2018-11-20T00:56:36.032Z,94321.00
2018-11-20T00:59:45.763Z,94337.00
2018-11-20T01:02:47.788Z,94346.00
2018-11-20T01:05:48.802Z,94326.00
2018-11-20T01:08:57.179Z,94333.00
2018-11-20T01:11:57.750Z,94308.00
2018-11-20T01:15:06.852Z,94331.00
2018-11-20T01:17:59.489Z,94325.00
2018-11-20T01:21:07.852Z,94336.00
2018-11-20T01:24:08.989Z,94340.00
2018-11-20T01:27:17.321Z,94316.00
2018-11-20T01:30:17.886Z,94300.00
2018-11-20T01:33:26.229Z,94294.00
2018-11-20T01:36:34.617Z,94298.00
2018-11-20T01:39:35.381Z,94297.00
2018-11-20T01:42:43.723Z,94320.00
2018-11-20T01:45:44.816Z,94316.00
2018-11-20T01:48:53.187Z,94308.00
2018-11-20T01:51:46.809Z,94304.00
2018-11-20T01:54:55.138Z,94293.00
2018-11-20T01:57:48.669Z,94307.00
2018-11-20T02:00:57.028Z,94297.00
2018-11-20T02:03:58.172Z,94271.00
2018-11-20T02:07:07.320Z,94287.00
2018-11-20T02:10:08.231Z,94278.00
2018-11-20T02:13:54.610Z,94282.00
2018-11-20T02:17:02.434Z,94279.00
2018-11-20T02:20:11.341Z,94284.00
2018-11-20T02:23:19.689Z,94264.00
2018-11-20T02:26:28.023Z,94255.00
2018-11-20T02:29:36.365Z,94250.00
2018-11-20T02:32:37.283Z,94248.00
2018-11-20T02:35:45.811Z,94249.00
2018-11-20T02:38:54.194Z,94247.00
2018-11-20T02:42:02.555Z,94247.00
2018-11-20T02:45:11.629Z,94261.00
2018-11-20T02:48:12.894Z,94255.00
2018-11-20T02:51:21.302Z,94233.00
2018-11-20T02:54:22.272Z,94240.00
2018-11-20T02:57:30.625Z,94235.00
2018-11-20T03:00:37.735Z,94237.00
2018-11-20T03:03:46.181Z,94228.00
2018-11-20T03:06:40.062Z,94224.00
2018-11-20T03:09:48.395Z,94241.00
2018-11-20T03:12:49.193Z,94240.00
2018-11-20T03:15:57.509Z,94235.00
2018-11-20T03:18:58.726Z,94230.00
2018-11-20T03:22:07.063Z,94237.00
2018-11-20T03:25:07.623Z,94227.00
2018-11-20T03:28:15.975Z,94228.00
2018-11-20T03:31:31.686Z,94226.00
2018-11-20T03:34:28.205Z,94237.00
2018-11-20T03:37:25.447Z,94217.00
2018-11-20T03:40:26.561Z,94229.00
2018-11-20T03:43:34.901Z,94224.00
2018-11-20T03:46:33.953Z,94216.00
2018-11-20T03:49:35.198Z,94223.00
2018-11-20T03:52:43.543Z,94214.00
2018-11-20T03:55:44.050Z,94219.00
2018-11-20T03:58:52.394Z,94228.00
2018-11-20T04:02:00.745Z,94221.00
2018-11-20T04:04:50.764Z,94213.00
2018-11-20T04:07:59.118Z,94212.00
2018-11-20T04:11:00.034Z,94211.00
2018-11-20T04:14:01.931Z,94214.00
2018-11-20T04:17:06.065Z,94217.00
2018-11-20T04:20:14.420Z,94212.00
2018-11-20T04:23:22.777Z,94208.00
2018-11-20T04:26:16.777Z,94218.00
2018-11-20T04:29:25.531Z,94217.00
2018-11-20T04:32:27.251Z,94198.00
2018-11-20T04:35:35.577Z,94205.00
2018-11-20T04:38:36.654Z,94185.00
2018-11-20T04:41:34.609Z,94192.00
2018-11-20T04:44:36.824Z,94194.00
2018-11-20T04:47:45.536Z,94185.00
2018-11-20T04:50:46.215Z,94188.00
2018-11-20T04:53:54.556Z,94196.00
2018-11-20T04:57:00.976Z,94179.00
2018-11-20T05:00:09.314Z,94189.00
2018-11-20T05:03:09.831Z,94187.00
2018-11-20T05:06:18.154Z,94176.00
2018-11-20T05:09:19.272Z,94185.00
2018-11-20T05:12:20.601Z,94178.00
2018-11-20T05:15:28.941Z,94183.00
2018-11-20T05:18:29.528Z,94172.00
2018-11-20T05:21:38.087Z,94171.00
2018-11-20T05:24:28.711Z,94169.00
2018-11-20T05:27:37.046Z,94170.00
2018-11-20T05:30:41.364Z,94176.00
2018-11-20T05:33:49.735Z,94178.00
2018-11-20T05:36:50.585Z,94172.00
2018-11-20T05:39:58.944Z,94171.00
2018-11-20T05:43:00.978Z,94148.00
2018-11-20T05:45:57.119Z,94164.00
2018-11-20T05:49:05.445Z,94169.00
2018-11-20T05:52:06.115Z,94157.00
2018-11-20T05:55:14.454Z,94160.00
2018-11-20T05:58:15.234Z,94158.00
2018-11-20T06:01:23.474Z,94150.00
2018-11-20T06:04:24.629Z,94149.00
2018-11-20T06:07:32.973Z,94140.00
2018-11-20T06:10:41.308Z,94132.00
2018-11-20T06:13:39.808Z,94139.00
2018-11-20T06:16:40.567Z,94132.00
2018-11-20T06:19:48.929Z,94126.00
2018-11-20T06:22:51.606Z,94130.00
2018-11-20T06:25:59.912Z,94124.00
2018-11-20T06:28:58.508Z,94140.00
2018-11-20T06:32:06.824Z,94144.00
2018-11-20T06:35:13.795Z,94143.00
2018-11-20T06:38:22.156Z,94146.00
2018-11-20T06:41:30.487Z,94145.00
2018-11-20T06:44:31.355Z,94150.00
2018-11-20T06:47:39.738Z,94144.00
2018-11-20T06:50:29.407Z,94148.00
2018-11-20T06:53:37.885Z,94151.00
2018-11-20T06:56:46.085Z,94151.00
2018-11-20T06:59:47.119Z,94148.00
2018-11-20T07:02:55.455Z,94144.00
2018-11-20T07:06:03.824Z,94155.00
2018-11-20T07:09:05.140Z,94144.00
2018-11-20T07:12:13.558Z,94132.00
2018-11-20T07:15:06.713Z,94138.00
2018-11-20T07:18:14.921Z,94136.00
2018-11-20T07:21:08.215Z,94146.00
2018-11-20T07:24:12.048Z,94151.00
2018-11-20T07:27:13.084Z,94140.00
2018-11-20T07:30:21.500Z,94161.00
2018-11-20T07:33:22.539Z,94133.00
2018-11-20T07:36:30.925Z,94165.00
2018-11-20T07:39:39.264Z,94162.00
2018-11-20T07:42:38.347Z,94160.00
2018-11-20T07:45:46.703Z,94152.00
2018-11-20T07:48:55.057Z,94156.00
2018-11-20T07:52:03.400Z,94156.00
2018-11-20T07:55:04.398Z,94133.00
2018-11-20T07:58:12.732Z,94133.00
2018-11-20T08:01:14.059Z,94133.00
2018-11-20T08:04:22.430Z,94114.00
2018-11-20T08:07:18.892Z,94134.00
2018-11-20T08:10:27.233Z,94124.00
2018-11-20T08:13:25.441Z,94111.00
2018-11-20T08:16:33.752Z,94109.00
2018-11-20T08:19:27.088Z,94093.00
2018-11-20T08:22:35.436Z,94105.00
2018-11-20T08:25:36.562Z,94120.00
2018-11-20T08:28:45.509Z,94115.00
2018-11-20T08:31:53.830Z,94124.00
2018-11-20T08:34:55.312Z,94129.00
2018-11-20T08:38:03.604Z,94136.00
2018-11-20T08:41:04.149Z,94130.00
2018-11-20T08:44:12.499Z,94129.00
2018-11-20T08:47:20.831Z,94148.00
2018-11-20T08:50:18.510Z,94136.00
2018-11-20T08:53:26.844Z,94136.00
2018-11-20T08:56:27.650Z,94123.00
2018-11-20T08:59:35.957Z,94131.00
2018-11-20T09:02:31.266Z,94147.00
2018-11-20T09:05:29.558Z,94123.00
2018-11-20T09:08:30.062Z,94148.00
2018-11-20T09:11:38.370Z,94150.00
2018-11-20T09:14:39.426Z,94162.00
2018-11-20T09:17:47.845Z,94147.00
2018-11-20T09:20:48.848Z,94171.00
2018-11-20T09:23:57.155Z,94146.00
2018-11-20T09:26:57.798Z,94150.00
2018-11-20T09:30:06.123Z,94151.00
2018-11-20T09:33:14.401Z,94162.00
2018-11-20T09:36:22.744Z,94146.00
2018-11-20T09:39:26.966Z,94142.00
2018-11-20T09:42:28.354Z,94145.00
2018-11-20T09:46:14.746Z,94129.00
2018-11-20T09:49:15.667Z,94123.00
2018-11-20T09:52:23.975Z,94109.00
2018-11-20T09:55:26.826Z,94108.00
2018-11-20T09:58:35.188Z,94110.00
2018-11-20T10:01:29.009Z,94131.00
2018-11-20T10:04:37.354Z,94115.00
2018-11-20T10:07:38.973Z,94130.00
2018-11-20T10:10:47.329Z,94116.00
2018-11-20T10:13:43.731Z,94105.00
2018-11-20T10:16:52.087Z,94115.00
2018-11-20T10:19:52.934Z,94118.00
2018-11-20T10:23:01.243Z,94105.00
2018-11-20T10:26:02.761Z,94103.00
2018-11-20T10:29:10.901Z,94097.00
2018-11-20T10:32:11.530Z,94096.00
2018-11-20T10:35:19.899Z,94098.00
2018-11-20T10:38:20.421Z,94097.00
2018-11-20T10:41:28.757Z,94102.00
2018-11-20T10:44:35.897Z,94098.00
2018-11-20T10:47:44.273Z,94086.00
2018-11-20T10:50:52.643Z,94087.00
2018-11-20T10:53:47.779Z,94092.00
2018-11-20T10:56:56.133Z,94086.00
2018-11-20T11:00:03.144Z,94086.00
2018-11-20T11:03:11.540Z,94084.00
2018-11-20T11:06:11.952Z,94088.00
2018-11-20T11:09:20.326Z,94080.00
2018-11-20T11:12:21.361Z,94081.00
2018-11-20T11:15:29.716Z,94076.00
2018-11-20T11:18:37.215Z,94064.00
2018-11-20T11:24:53.786Z,94071.00
2018-11-20T11:27:54.261Z,94084.00
2018-11-20T11:31:02.600Z,94075.00
2018-11-20T11:34:03.437Z,94078.00
2018-11-20T11:37:11.797Z,94085.00
2018-11-20T11:40:13.264Z,94082.00
2018-11-20T11:43:28.044Z,94085.00
2018-11-20T11:46:25.373Z,94073.00
2018-11-20T11:49:33.770Z,94085.00
2018-11-20T11:52:29.562Z,94084.00
2018-11-20T11:55:37.117Z,94078.00
2018-11-20T11:58:24.997Z,94081.00
2018-11-20T12:01:14.353Z,94070.00
2018-11-20T12:06:50.768Z,94088.00
2018-11-20T12:09:38.719Z,94087.00
2018-11-20T12:12:20.193Z,94089.00
2018-11-20T12:15:21.388Z,94089.00
2018-11-20T12:18:19.814Z,94100.00
2018-11-20T12:21:09.169Z,94089.00
2018-11-20T12:23:57.904Z,94101.00
2018-11-20T12:26:46.304Z,94090.00
2018-11-20T12:29:34.798Z,94093.00
2018-11-20T12:32:20.426Z,94084.00
2018-11-20T12:35:15.634Z,94087.00
2018-11-20T12:38:07.886Z,94088.00
2018-11-20T12:40:55.578Z,94085.00
2018-11-20T12:43:50.845Z,94082.00
2018-11-20T12:46:40.402Z,94083.00
2018-11-20T12:49:22.605Z,94093.00
2018-11-20T12:52:18.459Z,94079.00
2018-11-20T12:55:10.609Z,94097.00
2018-11-20T12:57:49.642Z,94098.00
2018-11-20T13:00:39.368Z,94090.00
2018-11-20T13:03:35.702Z,94095.00
2018-11-20T13:06:25.063Z,94099.00
2018-11-20T13:09:17.433Z,94098.00
2018-11-20T13:12:06.766Z,94099.00
2018-11-20T13:14:54.545Z,94096.00
2018-11-20T13:17:39.830Z,94102.00
2018-11-20T13:20:33.857Z,94106.00
2018-11-20T13:23:25.257Z,94110.00
2018-11-20T13:26:04.827Z,94115.00
2018-11-20T13:28:52.880Z,94116.00
2018-11-20T13:31:35.889Z,94129.00
2018-11-20T13:34:25.334Z,94123.00
2018-11-20T13:37:13.814Z,94136.00
2018-11-20T13:40:00.560Z,94139.00
2018-11-20T13:43:06.301Z,94137.00
2018-11-20T13:45:54.000Z,94138.00
2018-11-20T13:48:51.952Z,94140.00
2018-11-20T13:51:39.368Z,94146.00
2018-11-20T13:54:34.338Z,94137.00
2018-11-20T13:57:23.875Z,94141.00
2018-11-20T14:00:11.430Z,94141.00
2018-11-20T14:03:07.159Z,94153.00
2018-11-20T14:05:59.285Z,94155.00
2018-11-20T14:08:47.126Z,94152.00
2018-11-20T14:11:25.071Z,94145.00
2018-11-20T14:14:12.947Z,94152.00
2018-11-20T14:17:02.279Z,94165.00
2018-11-20T14:19:43.013Z,94169.00
2018-11-20T14:22:30.940Z,94163.00
2018-11-20T14:25:26.993Z,94163.00
2018-11-20T14:28:14.230Z,94171.00
2018-11-20T14:31:00.769Z,94178.00
2018-11-20T14:33:48.429Z,94167.00
2018-11-20T14:36:36.094Z,94190.00
2018-11-20T14:39:29.549Z,94192.00
2018-11-20T14:42:21.433Z,94193.00
2018-11-20T14:45:28.649Z,94196.00
2018-11-20T14:48:26.901Z,94199.00
2018-11-20T14:51:14.901Z,94210.00
2018-11-20T14:54:02.753Z,94207.00
2018-11-20T14:56:50.708Z,94212.00
2018-11-20T14:59:49.021Z,94226.00
2018-11-20T15:02:33.876Z,94228.00
2018-11-20T15:05:26.304Z,94236.00
2018-11-20T15:08:16.369Z,94239.00
2018-11-20T15:11:17.962Z,94249.00
2018-11-20T15:14:03.226Z,94244.00
2018-11-20T15:16:46.033Z,94263.00
2018-11-20T15:19:38.348Z,94252.00
2018-11-20T15:22:19.057Z,94244.00
2018-11-20T15:25:02.916Z,94259.00
2018-11-20T15:28:10.307Z,94270.00
2018-11-20T15:30:47.779Z,94272.00
2018-11-20T15:33:52.143Z,94266.00
2018-11-20T15:36:42.878Z,94270.00
2018-11-20T15:39:21.149Z,94283.00
2018-11-20T15:42:08.810Z,94283.00
2018-11-20T15:45:10.354Z,94283.00
2018-11-20T15:47:54.245Z,94275.00
2018-11-20T15:50:41.940Z,94286.00
2018-11-20T15:53:23.592Z,94301.00
2018-11-20T15:56:16.120Z,94309.00
2018-11-20T15:59:04.181Z,94305.00
2018-11-20T16:01:49.847Z,94300.00
2018-11-20T16:04:38.073Z,94324.00
2018-11-20T16:07:27.419Z,94329.00
2018-11-20T16:10:22.340Z,94324.00
2018-11-20T16:13:17.638Z,94323.00
2018-11-20T16:16:05.186Z,94335.00
2018-11-20T16:18:54.544Z,94336.00
2018-11-20T16:21:49.864Z,94342.00
2018-11-20T16:24:41.818Z,94344.00
2018-11-20T16:27:36.314Z,94358.00
2018-11-20T16:30:27.514Z,94370.00
2018-11-20T16:33:16.845Z,94354.00
2018-11-20T16:36:04.721Z,94362.00
2018-11-20T16:38:52.573Z,94379.00
2018-11-20T16:41:36.044Z,94387.00
2018-11-20T16:44:43.401Z,94380.00
2018-11-20T16:47:32.277Z,94393.00
2018-11-20T16:50:16.755Z,94387.00
2018-11-20T16:53:06.097Z,94389.00
2018-11-20T16:55:48.360Z,94404.00
2018-11-20T16:58:43.475Z,94405.00
2018-11-20T17:01:51.177Z,94406.00
2018-11-20T17:04:39.207Z,94404.00
2018-11-20T17:07:27.120Z,94408.00
2018-11-20T17:10:19.368Z,94421.00
2018-11-20T17:13:15.137Z,94415.00
2018-11-20T17:16:02.926Z,94437.00
2018-11-20T17:18:48.154Z,94437.00
2018-11-20T17:21:35.987Z,94428.00
2018-11-20T17:24:23.782Z,94433.00
2018-11-20T17:27:13.131Z,94444.00
2018-11-20T17:30:08.804Z,94428.00
2018-11-20T17:32:58.670Z,94447.00
2018-11-20T17:35:51.511Z,94440.00
2018-11-20T17:38:40.795Z,94441.00
2018-11-20T17:41:30.167Z,94455.00
2018-11-20T17:44:11.578Z,94450.00
2018-11-20T17:46:59.754Z,94452.00
2018-11-20T17:49:52.386Z,94455.00
2018-11-20T17:52:59.405Z,94458.00
2018-11-20T17:55:55.040Z,94475.00
2018-11-20T17:58:44.519Z,94466.00
2018-11-20T18:01:33.841Z,94471.00
2018-11-20T18:04:23.157Z,94467.00
2018-11-20T18:07:15.429Z,94464.00
2018-11-20T18:09:54.129Z,94472.00
2018-11-20T18:12:52.139Z,94475.00
2018-11-20T18:15:42.248Z,94456.00
2018-11-20T18:18:41.512Z,94482.00
2018-11-20T18:21:29.656Z,94478.00
2018-11-20T18:24:28.110Z,94472.00
2018-11-20T18:27:19.009Z,94486.00
2018-11-20T18:30:20.447Z,94480.00
2018-11-20T18:33:09.784Z,94482.00
2018-11-20T18:36:46.289Z,94497.00
2018-11-20T18:39:53.844Z,94497.00
2018-11-20T18:42:54.361Z,94501.00
2018-11-20T18:45:51.710Z,94501.00
2018-11-20T18:48:57.788Z,94495.00
2018-11-20T18:52:05.792Z,94501.00
2018-11-20T18:55:06.501Z,94508.00
2018-11-20T18:58:14.048Z,94493.00
2018-11-20T19:01:16.088Z,94517.00
2018-11-20T19:04:23.607Z,94497.00
2018-11-20T19:07:30.181Z,94496.00
2018-11-20T19:13:31.818Z,94504.00
2018-11-20T19:16:32.767Z,94521.00
2018-11-20T19:19:24.486Z,94515.00
2018-11-20T19:22:26.919Z,94538.00
2018-11-20T19:25:18.894Z,94546.00
2018-11-20T19:28:20.507Z,94543.00
2018-11-20T19:31:28.023Z,94555.00
2018-11-20T19:34:23.034Z,94557.00
2018-11-20T19:37:30.580Z,94549.00
2018-11-20T19:40:36.962Z,94560.00
2018-11-20T19:43:44.480Z,94569.00
2018-11-20T19:46:46.819Z,94576.00
2018-11-20T19:49:53.110Z,94579.00
2018-11-20T19:52:53.691Z,94574.00
2018-11-20T19:55:54.493Z,94575.00
2018-11-20T20:02:07.312Z,94597.00
2018-11-20T20:05:14.847Z,94585.00
2018-11-20T20:08:23.230Z,94593.00
2018-11-20T20:11:30.745Z,94602.00
2018-11-20T20:14:30.993Z,94598.00
2018-11-20T20:17:38.965Z,94607.00
2018-11-20T20:20:46.493Z,94613.00
2018-11-20T20:23:47.560Z,94610.00
2018-11-20T20:26:55.092Z,94607.00
2018-11-20T20:29:55.504Z,94616.00
2018-11-20T20:33:03.047Z,94601.00
2018-11-20T20:36:10.601Z,94615.00
2018-11-20T20:39:10.852Z,94618.00
2018-11-20T20:42:18.731Z,94616.00
2018-11-20T20:45:22.148Z,94618.00
2018-11-20T20:48:30.404Z,94617.00
2018-11-20T20:51:37.217Z,94616.00
2018-11-20T20:54:37.917Z,94626.00
2018-11-20T20:57:45.439Z,94628.00
2018-11-20T21:00:50.460Z,94633.00
2018-11-20T21:03:51.376Z,94628.00
2018-11-20T21:06:51.720Z,94628.00
2018-11-20T21:09:50.086Z,94624.00
2018-11-20T21:12:43.861Z,94632.00
2018-11-20T21:15:52.577Z,94631.00
2018-11-20T21:18:53.519Z,94613.00
2018-11-20T21:22:01.010Z,94628.00
2018-11-20T21:24:50.314Z,94637.00
2018-11-20T21:27:57.831Z,94632.00
2018-11-20T21:30:58.307Z,94650.00
2018-11-20T21:34:05.822Z,94637.00
2018-11-20T21:37:06.791Z,94647.00
2018-11-20T21:43:20.603Z,94655.00
2018-11-20T21:46:21.375Z,94640.00
2018-11-20T21:49:28.902Z,94658.00
2018-11-20T21:52:21.463Z,94658.00
2018-11-20T21:55:28.988Z,94668.00
2018-11-20T21:58:32.707Z,94681.00
2018-11-20T22:01:40.215Z,94664.00
2018-11-20T22:04:40.721Z,94663.00
2018-11-20T22:07:48.267Z,94658.00
2018-11-20T22:10:52.435Z,94656.00
2018-11-20T22:13:46.460Z,94671.00
2018-11-20T22:16:54.787Z,94667.00
2018-11-20T22:19:55.329Z,94680.00
2018-11-20T22:23:02.868Z,94693.00
2018-11-20T22:26:03.848Z,94684.00
2018-11-20T22:29:11.385Z,94673.00
2018-11-20T22:32:11.826Z,94676.00
2018-11-20T22:35:19.351Z,94683.00
2018-11-20T22:38:20.135Z,94683.00
2018-11-20T22:41:28.151Z,94684.00
2018-11-20T22:44:35.533Z,94692.00
2018-11-20T22:47:36.328Z,94688.00
2018-11-20T22:50:43.893Z,94696.00
2018-11-20T22:53:44.399Z,94693.00
2018-11-20T22:56:51.928Z,94696.00
2018-11-20T22:59:52.409Z,94692.00
2018-11-20T23:02:49.252Z,94677.00
2018-11-20T23:05:50.339Z,94681.00
2018-11-20T23:08:38.836Z,94691.00
2018-11-20T23:11:19.925Z,94694.00
2018-11-20T23:14:08.389Z,94691.00
2018-11-20T23:16:50.860Z,94701.00
2018-11-20T23:19:39.359Z,94700.00
2018-11-20T23:22:20.636Z,94690.00
2018-11-20T23:25:10.958Z,94693.00
2018-11-20T23:27:52.131Z,94697.00
2018-11-20T23:30:41.161Z,94700.00
2018-11-20T23:33:22.903Z,94675.00
2018-11-20T23:36:11.361Z,94683.00
2018-11-20T23:38:52.764Z,94709.00
2018-11-20T23:41:41.284Z,94702.00
2018-11-20T23:44:23.344Z,94716.00
2018-11-20T23:47:11.804Z,94700.00
2018-11-20T23:49:52.934Z,94706.00
2018-11-20T23:52:41.721Z,94698.00
2018-11-20T23:55:30.164Z,94704.00
2018-11-20T23:58:12.125Z,94718.00
